Crackenback, Australia
Current Conditions -  °F | °C
As of 10:00 AM on Wednesday 26 Nov 2014 (Local Time) from YCOM Reporting Station
Clear Clear  
Wind Chill: 59°   Ceiling: Unl
Heat Index: 59°   Visibility: 6mi
Dew Point: 39°   Wind: 6mph
Humidity: 48%   Direction: 170°S
Pressure: 30.12"   Gusts: NA
Location:  36.44°S, 148.51°E
Report Text: YCOM 252300Z AUTO 17005KT 140V210 9999 // NCD 15/04 Q1020
Loading
Personal Weather Stations






























Interactive Weather Map New forecast layout! Learn more

10-Day Weather Forecast

Advertisements
Track Severe Weather on mobile